createdAt,value
2018-09-18T00:00:29.330Z,0.00
2018-09-18T00:01:29.314Z,0.00
2018-09-18T00:02:29.290Z,0.00
2018-09-18T00:03:29.274Z,0.00
2018-09-18T00:04:29.255Z,0.00
2018-09-18T00:05:29.242Z,0.00
2018-09-18T00:06:29.222Z,0.00
2018-09-18T00:07:29.207Z,0.00
2018-09-18T00:08:29.201Z,0.00
2018-09-18T00:09:29.169Z,0.00
2018-09-18T00:10:29.153Z,0.00
2018-09-18T00:11:29.133Z,0.00
2018-09-18T00:12:29.118Z,0.00
2018-09-18T00:13:29.103Z,0.00
2018-09-18T00:14:29.083Z,0.00
2018-09-18T00:15:29.071Z,0.00
2018-09-18T00:16:29.058Z,0.00
2018-09-18T00:17:29.033Z,0.00
2018-09-18T00:18:29.012Z,0.00
2018-09-18T00:19:28.998Z,0.00
2018-09-18T00:20:28.980Z,0.00
2018-09-18T00:21:28.966Z,0.00
2018-09-18T00:22:28.942Z,0.00
2018-09-18T00:23:28.929Z,0.00
2018-09-18T00:24:28.909Z,0.00
2018-09-18T00:25:28.890Z,0.00
2018-09-18T00:26:28.878Z,0.00
2018-09-18T00:27:28.856Z,0.00
2018-09-18T00:28:28.841Z,0.00
2018-09-18T00:29:28.826Z,0.00
2018-09-18T00:30:28.804Z,0.00
2018-09-18T00:31:28.790Z,0.00
2018-09-18T00:32:28.769Z,0.00
2018-09-18T00:33:28.752Z,0.00
2018-09-18T00:34:28.738Z,0.00
2018-09-18T00:35:28.721Z,0.00
2018-09-18T00:36:28.705Z,0.00
2018-09-18T00:37:28.684Z,0.00
2018-09-18T00:38:28.667Z,0.00
2018-09-18T00:39:28.649Z,0.00
2018-09-18T00:40:28.637Z,0.00
2018-09-18T00:41:28.616Z,0.00
2018-09-18T00:42:28.598Z,0.00
2018-09-18T00:43:28.583Z,0.00
2018-09-18T00:44:28.571Z,0.00
2018-09-18T00:45:28.546Z,0.00
2018-09-18T00:46:28.526Z,0.00
2018-09-18T00:47:28.513Z,0.00
2018-09-18T00:48:28.502Z,0.00
2018-09-18T00:49:28.477Z,0.00
2018-09-18T00:50:28.457Z,0.00
2018-09-18T00:51:28.439Z,0.00
2018-09-18T00:52:28.423Z,0.00
2018-09-18T00:53:28.409Z,0.00
2018-09-18T00:54:28.390Z,0.00
2018-09-18T00:55:28.372Z,0.00
2018-09-18T00:56:28.353Z,0.00
2018-09-18T00:57:28.343Z,0.00
2018-09-18T00:58:28.318Z,0.00
2018-09-18T00:59:28.301Z,0.00
2018-09-18T01:00:28.285Z,0.00
2018-09-18T01:01:28.267Z,0.00
2018-09-18T01:02:28.248Z,0.00
2018-09-18T01:03:28.235Z,0.00
2018-09-18T01:04:28.215Z,0.00
2018-09-18T01:05:28.197Z,0.00
2018-09-18T01:06:28.180Z,0.00
2018-09-18T01:07:28.163Z,0.00
2018-09-18T01:08:28.154Z,0.00
2018-09-18T01:09:28.130Z,0.00
2018-09-18T01:10:28.110Z,0.00
2018-09-18T01:11:28.101Z,0.00
2018-09-18T01:12:28.078Z,0.00
2018-09-18T01:13:28.068Z,0.00
2018-09-18T01:14:28.042Z,0.00
2018-09-18T01:15:28.027Z,0.00
2018-09-18T01:16:28.019Z,0.00
2018-09-18T01:17:27.991Z,0.00
2018-09-18T01:18:27.974Z,0.00
2018-09-18T01:19:27.954Z,0.00
2018-09-18T01:20:27.941Z,0.00
2018-09-18T01:21:27.922Z,0.00
2018-09-18T01:22:27.904Z,0.00
2018-09-18T01:23:27.887Z,0.00
2018-09-18T01:24:27.871Z,0.00
2018-09-18T01:25:27.852Z,0.00
2018-09-18T01:26:27.835Z,0.00
2018-09-18T01:27:27.816Z,0.00
2018-09-18T01:28:27.801Z,0.00
2018-09-18T01:29:27.782Z,0.00
2018-09-18T01:30:27.775Z,0.00
2018-09-18T01:31:27.749Z,0.00
2018-09-18T01:32:27.733Z,0.00
2018-09-18T01:33:27.714Z,0.00
2018-09-18T01:34:27.695Z,0.00
2018-09-18T01:35:27.678Z,0.00
2018-09-18T01:36:27.660Z,0.00
2018-09-18T01:37:27.648Z,0.00
2018-09-18T01:38:27.625Z,0.00
2018-09-18T01:39:27.611Z,0.00
2018-09-18T01:40:27.593Z,0.00
2018-09-18T01:41:27.573Z,0.00
2018-09-18T01:42:27.554Z,0.00
2018-09-18T01:43:27.540Z,0.00
2018-09-18T01:44:27.525Z,0.00
2018-09-18T01:45:27.506Z,0.00
2018-09-18T01:46:27.485Z,0.00
2018-09-18T01:47:27.469Z,0.00
2018-09-18T01:48:27.453Z,0.00
2018-09-18T01:49:27.436Z,0.00
2018-09-18T01:50:27.416Z,0.00
2018-09-18T01:51:27.399Z,0.00
2018-09-18T01:52:27.388Z,0.00
2018-09-18T01:53:27.367Z,0.00
2018-09-18T01:54:27.346Z,0.00
2018-09-18T01:55:27.329Z,0.00
2018-09-18T01:56:27.317Z,0.00
2018-09-18T01:57:27.300Z,0.00
2018-09-18T01:58:27.278Z,0.00
2018-09-18T01:59:27.260Z,0.00
2018-09-18T02:00:27.243Z,0.00
2018-09-18T02:01:27.235Z,0.00
2018-09-18T02:02:27.210Z,0.00
2018-09-18T02:03:27.199Z,0.00
2018-09-18T02:04:27.173Z,0.00
2018-09-18T02:05:27.161Z,0.00
2018-09-18T02:06:27.148Z,0.00
2018-09-18T02:07:27.125Z,0.00
2018-09-18T02:08:27.107Z,0.00
2018-09-18T02:09:27.094Z,0.00
2018-09-18T02:10:27.068Z,0.00
2018-09-18T02:11:27.052Z,0.00
2018-09-18T02:12:27.035Z,0.00
2018-09-18T02:13:27.016Z,0.00
2018-09-18T02:14:27.001Z,0.00
2018-09-18T02:15:26.981Z,0.00
2018-09-18T02:16:26.969Z,0.00
2018-09-18T02:17:26.948Z,0.00
2018-09-18T02:18:26.932Z,0.00
2018-09-18T02:19:26.913Z,0.00
2018-09-18T02:20:26.898Z,0.00
2018-09-18T02:21:26.879Z,0.00
2018-09-18T02:22:26.861Z,0.00
2018-09-18T02:23:26.843Z,0.00
2018-09-18T02:24:26.831Z,0.00
2018-09-18T02:25:26.811Z,0.00
2018-09-18T02:26:26.796Z,0.00
2018-09-18T02:27:26.773Z,0.00
2018-09-18T02:28:26.757Z,0.00
2018-09-18T02:29:26.744Z,0.00
2018-09-18T02:30:26.724Z,0.00
2018-09-18T02:31:26.705Z,0.00
2018-09-18T02:32:26.686Z,0.00
2018-09-18T02:33:26.675Z,0.00
2018-09-18T02:34:26.653Z,0.00
2018-09-18T02:35:26.636Z,0.00
2018-09-18T02:36:26.618Z,0.00
2018-09-18T02:37:26.600Z,0.00
2018-09-18T02:38:26.587Z,0.00
2018-09-18T02:39:26.570Z,0.00
2018-09-18T02:40:26.548Z,0.00
2018-09-18T02:41:26.531Z,0.00
2018-09-18T02:42:26.510Z,0.00
2018-09-18T02:43:26.494Z,0.00
2018-09-18T02:44:26.477Z,0.00
2018-09-18T02:45:26.458Z,0.00
2018-09-18T02:46:26.447Z,0.00
2018-09-18T02:47:26.428Z,0.00
2018-09-18T02:48:26.406Z,0.00
2018-09-18T02:49:26.390Z,0.00
2018-09-18T02:50:26.371Z,0.00
2018-09-18T02:51:26.357Z,0.00
2018-09-18T02:52:26.337Z,0.00
2018-09-18T02:53:26.320Z,0.00
2018-09-18T02:54:26.300Z,0.00
2018-09-18T02:55:26.285Z,0.00
2018-09-18T02:56:26.266Z,0.00
2018-09-18T02:57:26.252Z,0.00
2018-09-18T02:58:26.232Z,0.00
2018-09-18T02:59:26.213Z,0.00
2018-09-18T03:00:26.197Z,0.00
2018-09-18T03:01:26.180Z,0.00
2018-09-18T03:02:26.162Z,0.00
2018-09-18T03:03:26.142Z,0.00
2018-09-18T03:04:26.127Z,0.00
2018-09-18T03:05:26.108Z,0.00
2018-09-18T03:06:26.090Z,0.00
2018-09-18T03:07:26.077Z,0.00
2018-09-18T03:08:26.057Z,0.00
2018-09-18T03:09:26.040Z,0.00
2018-09-18T03:10:26.020Z,0.00
2018-09-18T03:11:26.187Z,0.00
2018-09-18T03:12:25.986Z,0.00
2018-09-18T03:13:25.968Z,0.00
2018-09-18T03:14:25.955Z,0.00
2018-09-18T03:15:25.933Z,0.00
2018-09-18T03:16:25.922Z,0.00
2018-09-18T03:17:25.897Z,0.00
2018-09-18T03:18:25.881Z,0.00
2018-09-18T03:19:25.870Z,0.00
2018-09-18T03:20:25.844Z,0.00
2018-09-18T03:21:25.831Z,0.00
2018-09-18T03:22:25.809Z,0.00
2018-09-18T03:23:25.796Z,0.00
2018-09-18T03:24:25.776Z,0.00
2018-09-18T03:25:25.758Z,0.00
2018-09-18T03:26:25.742Z,0.00
2018-09-18T03:27:25.741Z,0.00
2018-09-18T03:28:25.705Z,0.00
2018-09-18T03:29:25.688Z,0.00
2018-09-18T03:30:25.673Z,0.00
2018-09-18T03:31:25.655Z,0.00
2018-09-18T03:32:25.640Z,0.00
2018-09-18T03:33:25.620Z,0.00
2018-09-18T03:34:25.598Z,0.00
2018-09-18T03:35:25.583Z,0.00
2018-09-18T03:36:25.565Z,0.00
2018-09-18T03:37:25.549Z,0.00
2018-09-18T03:38:25.530Z,0.00
2018-09-18T03:39:25.513Z,0.00
2018-09-18T03:40:25.493Z,0.00
2018-09-18T03:41:25.485Z,0.00
2018-09-18T03:42:25.461Z,0.00
2018-09-18T03:43:25.442Z,0.00
2018-09-18T03:44:25.426Z,0.00
2018-09-18T03:45:25.407Z,0.00
2018-09-18T03:46:25.390Z,0.00
2018-09-18T03:47:25.371Z,0.00
2018-09-18T03:48:25.397Z,0.00
2018-09-18T03:49:25.341Z,0.00
2018-09-18T03:50:25.316Z,0.00
2018-09-18T03:51:25.300Z,0.00
2018-09-18T03:52:25.281Z,0.00
2018-09-18T03:53:25.265Z,0.00
2018-09-18T03:54:25.248Z,0.00
2018-09-18T03:55:25.227Z,0.00
2018-09-18T03:56:25.210Z,0.00
2018-09-18T03:57:25.196Z,0.00
2018-09-18T03:58:25.182Z,0.00
2018-09-18T03:59:25.160Z,0.00
2018-09-18T04:00:25.142Z,0.00
2018-09-18T04:01:25.129Z,0.00
2018-09-18T04:02:25.103Z,0.00
2018-09-18T04:03:25.087Z,0.00
2018-09-18T04:04:25.068Z,0.00
2018-09-18T04:05:25.051Z,0.00
2018-09-18T04:06:25.039Z,0.00
2018-09-18T04:07:25.014Z,0.00
2018-09-18T04:08:24.996Z,0.00
2018-09-18T04:09:24.985Z,0.00
2018-09-18T04:10:24.962Z,0.00
2018-09-18T04:11:24.944Z,0.00
2018-09-18T04:12:24.928Z,0.00
2018-09-18T04:13:24.907Z,0.00
2018-09-18T04:14:24.891Z,0.00
2018-09-18T04:15:24.872Z,0.00
2018-09-18T04:16:24.852Z,0.00
2018-09-18T04:17:24.926Z,0.00
2018-09-18T04:18:24.821Z,0.00
2018-09-18T04:19:24.802Z,0.00
2018-09-18T04:20:24.783Z,0.00
2018-09-18T04:21:24.767Z,0.00
2018-09-18T04:22:24.747Z,0.00
2018-09-18T04:23:24.727Z,0.00
2018-09-18T04:24:24.709Z,0.00
2018-09-18T04:25:24.692Z,0.00
2018-09-18T04:26:24.681Z,0.00
2018-09-18T04:27:24.657Z,0.00
2018-09-18T04:28:24.639Z,0.00
2018-09-18T04:29:24.625Z,0.00
2018-09-18T04:30:24.603Z,0.00
2018-09-18T04:31:24.583Z,0.00
2018-09-18T04:32:24.567Z,0.00
2018-09-18T04:33:24.554Z,0.00
2018-09-18T04:34:24.536Z,0.00
2018-09-18T04:35:24.513Z,0.00
2018-09-18T04:36:24.495Z,0.00
2018-09-18T04:37:24.481Z,0.00
2018-09-18T04:38:24.463Z,0.00
2018-09-18T04:39:24.441Z,0.00
2018-09-18T04:40:24.424Z,0.00
2018-09-18T04:41:24.405Z,0.00
2018-09-18T04:42:24.387Z,0.00
2018-09-18T04:43:24.373Z,0.00
2018-09-18T04:44:24.353Z,0.00
2018-09-18T04:45:24.335Z,0.00
2018-09-18T04:46:24.318Z,0.00
2018-09-18T04:47:24.297Z,0.00
2018-09-18T04:48:24.286Z,0.00
2018-09-18T04:49:24.272Z,0.00
2018-09-18T04:50:24.244Z,0.00
2018-09-18T04:51:24.227Z,0.00
2018-09-18T04:52:24.208Z,4.00
2018-09-18T04:53:24.194Z,0.00
2018-09-18T04:54:24.182Z,0.00
2018-09-18T04:55:24.155Z,4.00
2018-09-18T04:56:24.136Z,4.00
2018-09-18T04:57:24.117Z,0.00
2018-09-18T04:58:24.098Z,4.00
2018-09-18T04:59:24.085Z,4.00
2018-09-18T05:00:24.062Z,4.00
2018-09-18T05:01:24.049Z,4.00
2018-09-18T05:02:24.033Z,4.00
2018-09-18T05:03:24.007Z,8.00
2018-09-18T05:04:23.989Z,4.00
2018-09-18T05:05:23.974Z,8.00
2018-09-18T05:06:23.966Z,8.00
2018-09-18T05:07:23.937Z,8.00
2018-09-18T05:08:23.920Z,8.00
2018-09-18T05:09:23.957Z,12.00
2018-09-18T05:10:23.883Z,12.00
2018-09-18T05:11:23.875Z,12.00
2018-09-18T05:12:23.859Z,16.00
2018-09-18T05:13:23.830Z,16.00
2018-09-18T05:14:23.812Z,16.00
2018-09-18T05:15:23.793Z,16.00
2018-09-18T05:16:23.774Z,20.00
2018-09-18T05:17:23.762Z,20.00
2018-09-18T05:18:23.738Z,24.00
2018-09-18T05:19:23.726Z,24.00
2018-09-18T05:20:23.713Z,28.00
2018-09-18T05:21:23.683Z,24.00
2018-09-18T05:22:23.665Z,28.00
2018-09-18T05:23:23.646Z,28.00
2018-09-18T05:24:23.639Z,32.00
2018-09-18T05:25:23.635Z,32.00
2018-09-18T05:26:23.598Z,36.00
2018-09-18T05:27:23.576Z,36.00
2018-09-18T05:28:23.557Z,40.00
2018-09-18T05:29:23.541Z,44.00
2018-09-18T05:30:23.520Z,48.00
2018-09-18T05:31:23.504Z,48.00
2018-09-18T05:32:23.495Z,52.00
2018-09-18T05:33:23.471Z,52.00
2018-09-18T05:34:23.447Z,56.00
2018-09-18T05:35:23.428Z,60.00
2018-09-18T05:36:23.411Z,60.00
2018-09-18T05:37:23.391Z,64.00
2018-09-18T05:38:23.390Z,64.00
2018-09-18T05:39:23.357Z,68.00
2018-09-18T05:40:23.338Z,68.00
2018-09-18T05:41:23.323Z,72.00
2018-09-18T05:42:23.309Z,72.00
2018-09-18T05:43:23.286Z,76.00
2018-09-18T05:44:23.266Z,80.00
2018-09-18T05:45:23.257Z,80.00
2018-09-18T05:46:23.229Z,80.00
2018-09-18T05:47:23.212Z,88.00
2018-09-18T05:48:23.194Z,84.00
2018-09-18T05:49:23.174Z,88.00
2018-09-18T05:50:23.155Z,92.00
2018-09-18T05:51:23.137Z,92.00
2018-09-18T05:52:23.119Z,92.00
2018-09-18T05:53:23.102Z,96.00
2018-09-18T05:54:23.085Z,100.00
2018-09-18T05:55:23.074Z,100.00
2018-09-18T05:56:23.047Z,100.00
2018-09-18T05:57:23.028Z,100.00
2018-09-18T05:58:23.017Z,104.00
2018-09-18T05:59:22.991Z,108.00
2018-09-18T06:00:22.977Z,108.00
2018-09-18T06:01:22.956Z,112.00
2018-09-18T06:02:23.248Z,116.00
2018-09-18T06:03:22.924Z,120.00
2018-09-18T06:04:22.902Z,124.00
2018-09-18T06:05:22.886Z,124.00
2018-09-18T06:06:22.864Z,128.00
2018-09-18T06:07:22.849Z,128.00
2018-09-18T06:08:22.829Z,128.00
2018-09-18T06:09:22.813Z,132.00
2018-09-18T06:10:22.844Z,136.00
2018-09-18T06:11:22.774Z,136.00
2018-09-18T06:12:22.761Z,140.00
2018-09-18T06:13:22.739Z,136.00
2018-09-18T06:14:22.724Z,132.00
2018-09-18T06:15:22.701Z,136.00
2018-09-18T06:16:22.684Z,136.00
2018-09-18T06:17:22.668Z,132.00
2018-09-18T06:18:22.648Z,136.00
2018-09-18T06:19:22.630Z,136.00
2018-09-18T06:20:22.612Z,140.00
2018-09-18T06:21:22.594Z,140.00
2018-09-18T06:22:22.580Z,140.00
2018-09-18T06:23:22.558Z,144.00
2018-09-18T06:24:22.541Z,144.00
2018-09-18T06:25:22.524Z,148.00
2018-09-18T06:26:22.595Z,148.00
2018-09-18T06:27:22.487Z,148.00
2018-09-18T06:28:22.470Z,152.00
2018-09-18T06:29:22.457Z,156.00
2018-09-18T06:30:22.433Z,156.00
2018-09-18T06:31:22.417Z,160.00
2018-09-18T06:32:22.402Z,160.00
2018-09-18T06:33:22.384Z,164.00
2018-09-18T06:34:22.375Z,168.00
2018-09-18T06:35:22.346Z,172.00
2018-09-18T06:36:22.330Z,180.00
2018-09-18T06:37:22.316Z,184.00
2018-09-18T06:38:22.292Z,184.00
2018-09-18T06:39:22.273Z,192.00
2018-09-18T06:40:22.256Z,192.00
2018-09-18T06:41:22.247Z,196.00
2018-09-18T06:42:22.224Z,204.00
2018-09-18T06:43:22.202Z,208.00
2018-09-18T06:44:22.186Z,212.00
2018-09-18T06:45:22.169Z,224.00
2018-09-18T06:46:22.151Z,236.00
2018-09-18T06:47:22.132Z,256.00
2018-09-18T06:48:22.115Z,284.00
2018-09-18T06:49:22.099Z,316.00
2018-09-18T06:50:22.079Z,352.00
2018-09-18T06:51:22.060Z,380.00
2018-09-18T06:52:22.044Z,412.00
2018-09-18T06:53:22.027Z,440.00
2018-09-18T06:54:22.014Z,472.00
2018-09-18T06:55:21.994Z,500.00
2018-09-18T06:56:21.974Z,524.00
2018-09-18T06:57:21.957Z,552.00
2018-09-18T06:58:21.940Z,568.00
2018-09-18T06:59:21.922Z,580.00
2018-09-18T07:00:21.905Z,588.00
2018-09-18T07:01:21.889Z,592.00
2018-09-18T07:02:21.870Z,604.00
2018-09-18T07:03:21.851Z,612.00
2018-09-18T07:04:21.833Z,620.00
2018-09-18T07:05:21.819Z,628.00
2018-09-18T07:06:21.798Z,636.00
2018-09-18T07:07:21.781Z,644.00
2018-09-18T07:08:21.763Z,648.00
2018-09-18T07:09:21.746Z,660.00
2018-09-18T07:10:21.727Z,668.00
2018-09-18T07:11:21.713Z,676.00
2018-09-18T07:12:21.695Z,684.00
2018-09-18T07:13:21.678Z,696.00
2018-09-18T07:14:21.659Z,708.00
2018-09-18T07:15:21.641Z,716.00
2018-09-18T07:16:21.633Z,732.00
2018-09-18T07:17:21.616Z,740.00
2018-09-18T07:18:21.592Z,752.00
2018-09-18T07:19:21.579Z,764.00
2018-09-18T07:20:21.557Z,780.00
2018-09-18T07:21:21.539Z,792.00
2018-09-18T07:22:21.523Z,804.00
2018-09-18T07:23:21.510Z,816.00
2018-09-18T07:24:21.494Z,832.00
2018-09-18T07:25:21.472Z,844.00
2018-09-18T07:26:21.455Z,860.00
2018-09-18T07:27:21.441Z,868.00
2018-09-18T07:28:21.424Z,884.00
2018-09-18T07:29:21.414Z,900.00
2018-09-18T07:30:21.388Z,912.00
2018-09-18T07:31:21.373Z,928.00
2018-09-18T07:32:21.355Z,940.00
2018-09-18T07:33:21.337Z,952.00
2018-09-18T07:34:21.320Z,968.00
2018-09-18T07:35:21.302Z,980.00
2018-09-18T07:36:21.287Z,992.00
2018-09-18T07:37:21.270Z,1008.00
2018-09-18T07:38:21.251Z,1020.00
2018-09-18T07:39:21.239Z,1032.00
2018-09-18T07:40:21.219Z,1048.00
2018-09-18T07:41:21.202Z,1064.00
2018-09-18T07:42:21.199Z,1076.00
2018-09-18T07:43:21.171Z,1088.00
2018-09-18T07:44:21.153Z,1104.00
2018-09-18T07:45:21.139Z,1120.00
2018-09-18T07:46:21.126Z,1136.00
2018-09-18T07:47:21.111Z,1152.00
2018-09-18T07:48:21.093Z,1168.00
2018-09-18T07:49:21.079Z,1180.00
2018-09-18T07:50:21.055Z,1196.00
2018-09-18T07:51:21.043Z,1212.00
2018-09-18T07:52:21.144Z,1228.00
2018-09-18T07:53:21.007Z,1236.00
2018-09-18T07:54:20.990Z,1248.00
2018-09-18T07:55:20.976Z,1264.00
2018-09-18T07:56:20.962Z,1280.00
2018-09-18T07:57:20.950Z,1288.00
2018-09-18T07:58:20.925Z,1296.00
2018-09-18T07:59:20.909Z,1308.00
2018-09-18T08:00:20.901Z,1328.00
2018-09-18T08:01:20.880Z,1352.00
2018-09-18T08:02:20.862Z,1364.00
2018-09-18T08:03:20.944Z,1372.00
2018-09-18T08:04:20.835Z,1368.00
2018-09-18T08:05:20.818Z,1384.00
2018-09-18T08:06:20.800Z,1392.00
2018-09-18T08:07:20.784Z,1416.00
2018-09-18T08:08:20.769Z,1444.00
2018-09-18T08:09:20.762Z,1452.00
2018-09-18T08:10:20.736Z,1464.00
2018-09-18T08:11:20.720Z,1472.00
2018-09-18T08:12:20.708Z,1476.00
2018-09-18T08:13:20.695Z,1496.00
2018-09-18T08:14:20.677Z,1508.00
2018-09-18T08:15:20.662Z,1520.00
2018-09-18T08:16:20.643Z,1528.00
2018-09-18T08:17:20.628Z,1532.00
2018-09-18T08:18:20.611Z,1540.00
2018-09-18T08:19:20.736Z,1540.00
2018-09-18T08:20:20.582Z,1536.00
2018-09-18T08:21:20.565Z,1536.00
2018-09-18T08:22:20.601Z,1528.00
2018-09-18T08:23:20.535Z,1520.00
2018-09-18T08:24:20.527Z,1516.00
2018-09-18T08:25:20.611Z,1512.00
2018-09-18T08:26:20.494Z,1512.00
2018-09-18T08:27:20.473Z,1504.00
2018-09-18T08:28:20.462Z,1492.00
2018-09-18T08:29:20.445Z,1488.00
2018-09-18T08:30:20.430Z,1472.00
2018-09-18T08:31:20.413Z,1464.00
2018-09-18T08:32:20.409Z,1468.00
2018-09-18T08:33:20.386Z,1456.00
2018-09-18T08:34:20.367Z,1448.00
2018-09-18T08:35:20.353Z,1428.00
2018-09-18T08:36:20.339Z,1408.00
2018-09-18T08:37:20.330Z,1376.00
2018-09-18T08:38:20.309Z,1352.00
2018-09-18T08:39:20.294Z,1332.00
2018-09-18T08:40:20.279Z,1304.00
2018-09-18T08:41:20.279Z,1280.00
2018-09-18T08:42:20.270Z,1260.00
2018-09-18T08:43:20.262Z,1240.00
2018-09-18T08:44:20.233Z,1220.00
2018-09-18T08:45:20.205Z,1196.00
2018-09-18T08:46:20.189Z,1180.00
2018-09-18T08:47:20.176Z,1164.00
2018-09-18T08:48:20.163Z,1152.00
2018-09-18T08:49:20.160Z,1148.00
2018-09-18T08:50:20.132Z,1144.00
2018-09-18T08:51:20.139Z,1136.00
2018-09-18T08:52:20.123Z,1136.00
2018-09-18T08:53:20.107Z,1132.00
2018-09-18T08:54:20.076Z,1128.00
2018-09-18T08:55:20.087Z,1124.00
2018-09-18T08:56:20.046Z,1124.00
2018-09-18T08:57:20.041Z,1124.00
2018-09-18T08:58:20.035Z,1132.00
2018-09-18T08:59:20.002Z,1164.00
2018-09-18T09:00:19.994Z,1204.00
2018-09-18T09:01:19.973Z,1240.00
2018-09-18T09:02:19.959Z,1280.00
2018-09-18T09:03:19.999Z,1312.00
2018-09-18T09:04:19.931Z,1344.00
2018-09-18T09:05:19.962Z,1368.00
2018-09-18T09:06:19.987Z,1396.00
2018-09-18T09:07:19.890Z,1424.00
2018-09-18T09:08:20.052Z,1448.00
2018-09-18T09:09:19.961Z,1468.00
2018-09-18T09:10:19.875Z,1484.00
2018-09-18T09:11:19.832Z,1508.00
2018-09-18T09:12:19.816Z,1532.00
2018-09-18T09:13:19.803Z,1552.00
2018-09-18T09:14:19.858Z,1576.00
2018-09-18T09:15:19.820Z,1600.00
2018-09-18T09:16:19.762Z,1620.00
2018-09-18T09:17:19.747Z,1644.00
2018-09-18T09:18:19.839Z,1656.00
2018-09-18T09:19:19.721Z,1672.00
2018-09-18T09:20:19.733Z,1676.00
2018-09-18T09:21:19.758Z,1680.00
2018-09-18T09:22:19.765Z,1688.00
2018-09-18T09:23:19.707Z,1696.00
2018-09-18T09:24:19.660Z,1704.00
2018-09-18T09:25:19.640Z,1704.00
2018-09-18T09:26:19.722Z,1716.00
2018-09-18T09:27:19.628Z,1724.00
2018-09-18T09:28:19.616Z,1724.00
2018-09-18T09:29:19.593Z,1732.00
2018-09-18T09:30:19.581Z,1736.00
2018-09-18T09:31:19.566Z,1740.00
2018-09-18T09:32:19.566Z,1752.00
2018-09-18T09:33:19.554Z,1752.00
2018-09-18T09:34:19.569Z,1748.00
2018-09-18T09:35:19.528Z,1760.00
2018-09-18T09:36:19.527Z,1764.00
2018-09-18T09:37:19.604Z,1764.00
2018-09-18T09:38:19.480Z,1760.00
2018-09-18T09:39:19.454Z,1764.00
2018-09-18T09:40:19.438Z,1768.00
2018-09-18T09:41:19.424Z,1772.00
2018-09-18T09:42:19.411Z,1780.00
2018-09-18T09:43:19.402Z,1776.00
2018-09-18T09:44:19.392Z,1780.00
2018-09-18T09:45:19.375Z,1788.00
2018-09-18T09:46:19.359Z,1784.00
2018-09-18T09:47:19.349Z,1796.00
2018-09-18T09:48:19.332Z,1800.00
2018-09-18T09:49:19.328Z,1808.00
2018-09-18T09:50:19.307Z,1816.00
2018-09-18T09:51:19.473Z,1812.00
2018-09-18T09:52:19.283Z,1808.00
2018-09-18T09:53:19.277Z,1804.00
2018-09-18T09:54:19.254Z,1808.00
2018-09-18T09:55:19.242Z,1812.00
2018-09-18T09:56:19.233Z,1812.00
2018-09-18T09:57:19.218Z,1816.00
2018-09-18T09:58:19.206Z,1820.00
2018-09-18T09:59:19.192Z,1820.00
2018-09-18T10:00:19.180Z,1820.00
2018-09-18T10:01:19.168Z,1824.00
2018-09-18T10:02:19.154Z,1832.00
2018-09-18T10:03:19.141Z,1836.00
2018-09-18T10:04:19.135Z,1844.00
2018-09-18T10:05:19.119Z,1840.00
2018-09-18T10:06:19.105Z,1836.00
2018-09-18T10:07:19.092Z,1836.00
2018-09-18T10:08:19.086Z,1836.00
2018-09-18T10:09:19.068Z,1836.00
2018-09-18T10:10:19.064Z,1832.00
2018-09-18T10:11:19.048Z,1836.00
2018-09-18T10:12:19.034Z,1836.00
2018-09-18T10:13:19.027Z,1836.00
2018-09-18T10:14:19.021Z,1840.00
2018-09-18T10:15:19.028Z,1840.00
2018-09-18T10:16:18.990Z,1836.00
2018-09-18T10:17:18.971Z,1836.00
2018-09-18T10:18:19.007Z,1836.00
2018-09-18T10:19:18.945Z,1840.00
2018-09-18T10:20:18.934Z,1832.00
2018-09-18T10:21:18.923Z,1828.00
2018-09-18T10:22:18.911Z,1828.00
2018-09-18T10:23:18.898Z,1828.00
2018-09-18T10:24:18.892Z,1828.00
2018-09-18T10:25:18.901Z,1820.00
2018-09-18T10:26:18.960Z,1824.00
2018-09-18T10:27:18.853Z,1824.00
2018-09-18T10:28:18.839Z,1832.00
2018-09-18T10:29:18.831Z,1832.00
2018-09-18T10:30:18.820Z,1824.00
2018-09-18T10:31:18.801Z,1824.00
2018-09-18T10:32:18.794Z,1816.00
2018-09-18T10:33:18.779Z,1816.00
2018-09-18T10:34:18.807Z,1808.00
2018-09-18T10:35:18.762Z,1816.00
2018-09-18T10:36:18.741Z,1824.00
2018-09-18T10:37:18.734Z,1824.00
2018-09-18T10:38:18.721Z,1820.00
2018-09-18T10:39:18.741Z,1820.00
2018-09-18T10:40:18.697Z,1816.00
2018-09-18T10:41:18.797Z,1808.00
2018-09-18T10:42:18.672Z,1812.00
2018-09-18T10:43:18.675Z,1816.00
2018-09-18T10:44:18.667Z,1836.00
2018-09-18T10:45:18.671Z,1836.00
2018-09-18T10:46:18.624Z,1840.00
2018-09-18T10:47:18.624Z,1832.00
2018-09-18T10:48:18.631Z,1832.00
2018-09-18T10:49:18.628Z,1820.00
2018-09-18T10:50:18.582Z,1816.00
2018-09-18T10:51:18.568Z,1828.00
2018-09-18T10:52:18.568Z,1828.00
2018-09-18T10:53:18.544Z,1828.00
2018-09-18T10:54:18.533Z,1832.00
2018-09-18T10:55:18.563Z,1852.00
2018-09-18T10:56:18.517Z,1860.00
2018-09-18T10:57:18.500Z,1868.00
2018-09-18T10:58:18.487Z,1884.00
2018-09-18T10:59:18.478Z,1880.00
2018-09-18T11:00:18.465Z,1888.00
2018-09-18T11:01:18.482Z,1896.00
2018-09-18T11:02:18.531Z,1896.00
2018-09-18T11:03:18.440Z,1916.00
2018-09-18T11:04:18.425Z,1916.00
2018-09-18T11:05:18.416Z,1920.00
2018-09-18T11:06:18.407Z,1932.00
2018-09-18T11:07:18.437Z,1936.00
2018-09-18T11:08:18.489Z,1956.00
2018-09-18T11:09:18.460Z,1952.00
2018-09-18T11:10:18.358Z,1920.00
2018-09-18T11:11:18.338Z,1972.00
2018-09-18T11:12:18.384Z,1980.00
2018-09-18T11:13:18.430Z,1984.00
2018-09-18T11:14:18.398Z,1980.00
2018-09-18T11:15:18.360Z,1956.00
2018-09-18T11:16:18.306Z,1968.00
2018-09-18T11:17:18.308Z,2000.00
2018-09-18T11:18:18.281Z,1980.00
2018-09-18T11:19:18.287Z,1996.00
2018-09-18T11:20:18.311Z,2028.00
2018-09-18T11:21:18.239Z,2024.00
2018-09-18T11:22:18.432Z,2032.00
2018-09-18T11:23:18.214Z,2020.00
2018-09-18T11:24:18.235Z,2012.00
2018-09-18T11:25:18.186Z,2028.00
2018-09-18T11:26:18.178Z,2032.00
2018-09-18T11:27:18.186Z,2028.00
2018-09-18T11:28:18.150Z,2036.00
2018-09-18T11:29:18.138Z,2052.00
2018-09-18T11:30:18.131Z,2072.00
2018-09-18T11:31:18.177Z,2052.00
2018-09-18T11:32:18.106Z,2040.00
2018-09-18T11:33:18.109Z,2040.00
2018-09-18T11:34:18.110Z,2060.00
2018-09-18T11:35:18.071Z,2072.00
2018-09-18T11:36:18.063Z,2068.00
2018-09-18T11:37:18.059Z,2068.00
2018-09-18T11:38:18.052Z,2076.00
2018-09-18T11:39:18.025Z,2080.00
2018-09-18T11:40:18.014Z,2092.00
2018-09-18T11:41:18.005Z,2116.00
2018-09-18T11:42:17.997Z,2124.00
2018-09-18T11:43:17.982Z,2136.00
2018-09-18T11:44:17.972Z,2152.00
2018-09-18T11:45:17.978Z,2148.00
2018-09-18T11:46:17.950Z,2148.00
2018-09-18T11:47:17.951Z,2128.00
2018-09-18T11:48:17.934Z,2136.00
2018-09-18T11:49:17.923Z,2148.00
2018-09-18T11:50:17.907Z,2168.00
2018-09-18T11:51:18.011Z,2148.00
2018-09-18T11:52:17.881Z,2140.00
2018-09-18T11:53:17.872Z,2144.00
2018-09-18T11:54:17.863Z,2136.00
2018-09-18T11:55:17.849Z,2144.00
2018-09-18T11:56:17.848Z,2128.00
2018-09-18T11:57:17.919Z,2108.00
2018-09-18T11:58:17.832Z,2104.00
2018-09-18T11:59:17.808Z,2088.00
2018-09-18T12:00:17.795Z,2096.00
2018-09-18T12:01:17.783Z,2084.00
2018-09-18T12:02:17.774Z,2072.00
2018-09-18T12:03:17.761Z,2080.00
2018-09-18T12:04:17.761Z,2052.00
2018-09-18T12:05:17.744Z,2108.00
2018-09-18T12:06:17.732Z,2096.00
2018-09-18T12:07:17.722Z,2080.00
2018-09-18T12:08:17.708Z,2076.00
2018-09-18T12:09:17.709Z,2068.00
2018-09-18T12:10:17.685Z,2056.00
2018-09-18T12:11:17.733Z,2040.00
2018-09-18T12:12:17.662Z,2040.00
2018-09-18T12:13:17.660Z,2028.00
2018-09-18T12:14:17.654Z,2024.00
2018-09-18T12:15:17.629Z,2052.00
2018-09-18T12:16:17.618Z,2032.00
2018-09-18T12:17:17.607Z,2020.00
2018-09-18T12:18:17.600Z,2032.00
2018-09-18T12:19:17.586Z,2060.00
2018-09-18T12:20:17.574Z,2044.00
2018-09-18T12:21:17.573Z,2036.00
2018-09-18T12:22:17.720Z,2020.00
2018-09-18T12:23:17.547Z,2016.00
2018-09-18T12:24:17.532Z,2008.00
2018-09-18T12:25:17.524Z,2024.00
2018-09-18T12:26:17.510Z,2024.00
2018-09-18T12:27:17.512Z,2008.00
2018-09-18T12:28:17.489Z,2024.00
2018-09-18T12:29:17.484Z,2012.00
2018-09-18T12:30:17.474Z,2016.00
2018-09-18T12:31:17.471Z,2024.00
2018-09-18T12:32:17.443Z,2024.00
2018-09-18T12:33:17.435Z,2012.00
2018-09-18T12:34:17.422Z,2008.00
2018-09-18T12:35:17.455Z,1988.00
2018-09-18T12:36:17.408Z,1992.00
2018-09-18T12:37:17.390Z,1996.00
2018-09-18T12:38:17.382Z,1988.00
2018-09-18T12:39:17.369Z,1996.00